createdAt,value
2023-05-10T03:44:10.745Z,100.00
2023-05-10T03:47:14.127Z,100.00
2023-05-10T03:50:17.298Z,100.00
2023-05-10T03:53:20.608Z,100.00
2023-05-10T03:56:24.897Z,100.00
2023-05-10T03:59:28.104Z,100.00
2023-05-10T04:02:31.480Z,100.00
2023-05-10T04:05:37.074Z,100.00
2023-05-10T04:08:39.878Z,100.00
2023-05-10T04:11:42.868Z,100.00
2023-05-10T04:14:45.513Z,100.00
2023-05-10T04:17:48.620Z,100.00
2023-05-10T04:20:51.673Z,100.00
2023-05-10T04:23:54.427Z,100.00
2023-05-10T04:26:57.863Z,100.00
2023-05-10T04:30:01.686Z,100.00
2023-05-10T04:33:04.591Z,100.00
2023-05-10T04:36:07.944Z,100.00
2023-05-10T04:39:10.924Z,100.00
2023-05-10T04:42:15.852Z,100.00
2023-05-10T04:45:18.714Z,100.00
2023-05-10T04:48:21.698Z,100.00
2023-05-10T04:51:24.276Z,100.00
2023-05-10T04:54:27.433Z,100.00
2023-05-10T04:57:30.018Z,100.00
2023-05-10T05:00:36.170Z,100.00
2023-05-10T05:03:38.911Z,100.00
2023-05-10T05:06:41.973Z,100.00
2023-05-10T05:09:44.660Z,100.00
2023-05-10T05:12:47.598Z,100.00
2023-05-10T05:15:50.237Z,100.00
2023-05-10T05:18:53.181Z,100.00
2023-05-10T05:21:55.783Z,100.00
2023-05-10T05:25:03.577Z,100.00
2023-05-10T05:28:06.186Z,100.00
2023-05-10T05:31:09.385Z,100.00
2023-05-10T05:34:13.156Z,100.00
2023-05-10T05:37:23.254Z,100.00
2023-05-10T05:40:25.901Z,100.00
2023-05-10T05:43:28.856Z,100.00
2023-05-10T05:46:31.650Z,100.00
2023-05-10T05:49:34.497Z,97.91
2023-05-10T05:52:37.250Z,97.44
2023-05-10T05:55:40.093Z,96.62
2023-05-10T05:58:42.535Z,97.18
2023-05-10T06:01:45.575Z,97.19
2023-05-10T06:04:48.589Z,97.68
2023-05-10T06:07:51.229Z,94.17
2023-05-10T06:10:54.110Z,93.58
2023-05-10T06:13:57.014Z,92.72
2023-05-10T06:17:01.126Z,92.73
2023-05-10T06:20:04.543Z,95.01
2023-05-10T06:23:07.963Z,92.84
2023-05-10T06:26:11.054Z,92.72
2023-05-10T06:29:14.168Z,90.62
2023-05-10T06:32:16.797Z,87.66
2023-05-10T06:35:19.883Z,86.49
2023-05-10T06:38:22.817Z,85.72
2023-05-10T06:41:25.620Z,83.74
2023-05-10T06:44:28.255Z,84.61
2023-05-10T06:47:31.052Z,86.26
2023-05-10T06:50:34.350Z,88.58
2023-05-10T06:53:37.392Z,90.33
2023-05-10T06:56:39.965Z,90.13
2023-05-10T06:59:42.865Z,91.96
2023-05-10T07:02:45.802Z,91.19
2023-05-10T07:05:48.755Z,89.34
2023-05-10T07:08:51.507Z,89.60
2023-05-10T07:11:54.498Z,93.30
2023-05-10T07:14:57.180Z,90.68
2023-05-10T07:18:00.300Z,89.09
2023-05-10T07:21:04.109Z,85.97
2023-05-10T07:24:07.206Z,84.12
2023-05-10T07:27:10.170Z,78.25
2023-05-10T07:30:13.878Z,80.17
2023-05-10T07:33:17.050Z,79.26
2023-05-10T07:36:20.063Z,79.75
2023-05-10T07:39:27.792Z,76.08
2023-05-10T07:42:31.112Z,71.75
2023-05-10T07:45:34.676Z,70.08
2023-05-10T07:48:38.273Z,73.69
2023-05-10T07:51:41.509Z,69.31
2023-05-10T07:54:44.521Z,72.33
2023-05-10T07:57:47.217Z,73.96
2023-05-10T08:00:50.437Z,69.99
2023-05-10T08:03:54.684Z,67.15
2023-05-10T08:06:57.522Z,67.73
2023-05-10T08:10:00.831Z,63.23
2023-05-10T08:13:03.397Z,61.64
2023-05-10T08:16:06.455Z,61.93
2023-05-10T08:19:09.107Z,56.26
2023-05-10T08:22:12.160Z,56.98
2023-05-10T08:25:14.968Z,59.84
2023-05-10T08:28:18.947Z,59.94
2023-05-10T08:31:21.665Z,58.18
2023-05-10T08:34:25.027Z,58.33
2023-05-10T08:37:31.139Z,53.50
2023-05-10T08:40:34.296Z,56.64
2023-05-10T08:43:37.131Z,53.43
2023-05-10T08:46:46.307Z,52.92
2023-05-10T08:49:52.314Z,55.29
2023-05-10T08:52:58.700Z,53.68
2023-05-10T08:56:02.881Z,55.62
2023-05-10T08:59:05.868Z,55.04
2023-05-10T09:02:12.663Z,52.00
2023-05-10T09:05:17.221Z,51.57
2023-05-10T09:08:21.351Z,52.01
2023-05-10T09:11:25.327Z,52.41
2023-05-10T09:14:28.146Z,52.53
2023-05-10T09:17:31.340Z,53.62
2023-05-10T09:20:33.916Z,54.09
2023-05-10T09:23:38.865Z,50.78
2023-05-10T09:26:53.045Z,51.53
2023-05-10T09:29:56.790Z,52.76
2023-05-10T09:33:01.321Z,48.01
2023-05-10T09:36:09.261Z,49.03
2023-05-10T09:39:11.856Z,50.02
2023-05-10T09:42:19.259Z,50.46
2023-05-10T09:45:23.085Z,47.55
2023-05-10T09:48:26.097Z,48.69
2023-05-10T09:51:28.968Z,47.68
2023-05-10T09:54:33.358Z,47.25
2023-05-10T09:57:35.917Z,48.29
2023-05-10T10:00:39.557Z,48.13
2023-05-10T10:03:44.488Z,47.83
2023-05-10T10:06:47.127Z,49.68
2023-05-10T10:09:50.004Z,46.99
2023-05-10T10:12:53.109Z,48.12
2023-05-10T10:15:56.069Z,48.35
2023-05-10T10:18:59.589Z,46.23
2023-05-10T10:22:02.462Z,45.35
2023-05-10T10:25:05.918Z,47.17
2023-05-10T10:28:28.471Z,43.24
2023-05-10T10:31:47.399Z,40.48
2023-05-10T10:34:51.046Z,40.17
2023-05-10T10:37:53.947Z,43.17
2023-05-10T10:41:08.910Z,42.42
2023-05-10T10:44:23.621Z,41.16
2023-05-10T10:47:32.097Z,39.13
2023-05-10T10:50:45.920Z,40.22
2023-05-10T10:53:49.338Z,41.72
2023-05-10T10:57:24.469Z,38.83
2023-05-10T11:00:30.204Z,37.54
2023-05-10T11:03:32.790Z,38.93
2023-05-10T11:06:37.237Z,37.11
2023-05-10T11:09:41.394Z,38.96
2023-05-10T11:12:55.174Z,35.37
2023-05-10T11:15:58.340Z,36.60
2023-05-10T11:19:07.845Z,38.17
2023-05-10T11:22:14.809Z,40.67
2023-05-10T11:25:17.671Z,41.98
2023-05-10T11:28:20.801Z,36.90
2023-05-10T11:31:24.915Z,38.32
2023-05-10T11:34:31.342Z,39.40
2023-05-10T11:37:35.390Z,38.73
2023-05-10T11:40:39.322Z,40.11
2023-05-10T11:43:43.175Z,39.21
2023-05-10T11:46:45.917Z,40.59
2023-05-10T11:49:49.432Z,41.41
2023-05-10T11:53:01.209Z,40.71
2023-05-10T11:56:08.798Z,41.45
2023-05-10T11:59:11.614Z,41.44
2023-05-10T12:02:15.271Z,40.74
2023-05-10T12:05:18.872Z,40.42
2023-05-10T12:08:26.720Z,41.25
2023-05-10T12:11:29.831Z,41.71
2023-05-10T12:14:36.197Z,41.20
2023-05-10T12:17:43.324Z,41.33
2023-05-10T12:20:46.126Z,35.83
2023-05-10T12:23:54.417Z,36.33
2023-05-10T12:26:57.067Z,36.45
2023-05-10T12:30:04.085Z,36.24
2023-05-10T12:33:12.834Z,35.48
2023-05-10T12:36:19.008Z,35.26
2023-05-10T12:39:21.806Z,35.18
2023-05-10T12:42:26.190Z,35.25
2023-05-10T12:45:28.802Z,33.83
2023-05-10T12:48:32.799Z,26.39
2023-05-10T12:51:37.980Z,24.16
2023-05-10T12:54:40.921Z,26.11
2023-05-10T12:57:45.578Z,30.45
2023-05-10T13:00:48.659Z,32.74
2023-05-10T13:03:51.546Z,36.39
2023-05-10T13:06:56.492Z,35.22
2023-05-10T13:09:59.119Z,35.07
2023-05-10T13:13:04.136Z,33.24
2023-05-10T13:16:07.188Z,32.42
2023-05-10T13:19:10.256Z,28.63
2023-05-10T13:22:13.159Z,28.27
2023-05-10T13:25:16.049Z,28.87
2023-05-10T13:28:18.564Z,27.72
2023-05-10T13:31:21.704Z,24.29
2023-05-10T13:34:25.241Z,25.53
2023-05-10T13:37:28.136Z,28.07
2023-05-10T13:40:30.829Z,29.08
2023-05-10T13:43:33.705Z,30.78
2023-05-10T13:46:36.324Z,30.73
2023-05-10T13:49:39.630Z,29.16
2023-05-10T13:52:42.198Z,29.53
2023-05-10T13:55:45.162Z,28.63
2023-05-10T13:58:48.559Z,29.89
2023-05-10T14:01:51.755Z,28.41
2023-05-10T14:04:54.618Z,21.81
2023-05-10T14:07:57.379Z,19.49
2023-05-10T14:11:00.560Z,18.44
2023-05-10T14:14:15.493Z,20.67
2023-05-10T14:17:21.205Z,22.22
2023-05-10T14:20:24.058Z,17.88
2023-05-10T14:23:27.251Z,18.74
2023-05-10T14:26:32.440Z,20.95
2023-05-10T14:29:35.370Z,23.05
2023-05-10T14:32:38.233Z,24.75
2023-05-10T14:35:41.639Z,20.36
2023-05-10T14:38:44.282Z,20.06
2023-05-10T14:41:48.231Z,19.30
2023-05-10T14:44:50.867Z,21.99
2023-05-10T14:47:55.937Z,19.80
2023-05-10T14:50:58.628Z,18.73
2023-05-10T14:54:01.730Z,16.88
2023-05-10T14:57:04.309Z,17.40
2023-05-10T15:00:08.184Z,20.47
2023-05-10T15:03:11.496Z,23.29
2023-05-10T15:06:18.134Z,27.27
2023-05-10T15:09:20.798Z,29.59
2023-05-10T15:12:23.732Z,31.74
2023-05-10T15:15:26.388Z,33.50
2023-05-10T15:18:29.332Z,35.05
2023-05-10T15:21:36.144Z,34.48
2023-05-10T15:24:39.230Z,35.08
2023-05-10T15:27:41.690Z,35.06
2023-05-10T15:30:45.075Z,35.22
2023-05-10T15:33:47.714Z,35.62
2023-05-10T15:36:50.619Z,36.32
